createdAt,value
2018-10-09T00:02:47.143Z,9.6
2018-10-09T00:07:49.565Z,9.6
2018-10-09T00:12:52.297Z,9.5
2018-10-09T00:17:54.442Z,9.5
2018-10-09T00:22:56.889Z,9.5
2018-10-09T00:27:59.365Z,9.5
2018-10-09T00:33:01.786Z,9.5
2018-10-09T00:38:04.241Z,9.6
2018-10-09T00:43:06.640Z,9.5
2018-10-09T00:48:09.087Z,9.5
2018-10-09T00:53:11.547Z,9.5
2018-10-09T00:58:13.969Z,9.5
2018-10-09T01:03:16.407Z,9.4
2018-10-09T01:08:18.892Z,9.4
2018-10-09T01:13:21.284Z,9.3
2018-10-09T01:18:23.740Z,9.3
2018-10-09T01:23:26.165Z,9.2
2018-10-09T01:28:28.606Z,9.2
2018-10-09T01:33:31.046Z,9.1
2018-10-09T01:38:33.483Z,9.1
2018-10-09T01:43:35.927Z,9.1
2018-10-09T01:48:38.366Z,9.1
2018-10-09T01:53:40.811Z,9.1
2018-10-09T01:58:43.246Z,9
2018-10-09T02:03:45.689Z,9
2018-10-09T02:08:48.139Z,9
2018-10-09T02:13:50.576Z,9
2018-10-09T02:18:53.012Z,9
2018-10-09T02:23:55.481Z,8.9
2018-10-09T02:28:57.877Z,8.9
2018-10-09T02:34:00.409Z,8.9
2018-10-09T02:39:02.762Z,8.8
2018-10-09T02:44:05.201Z,8.8
2018-10-09T02:49:07.641Z,8.8
2018-10-09T02:54:10.095Z,8.8
2018-10-09T02:59:12.529Z,8.8
2018-10-09T03:04:14.979Z,8.7
2018-10-09T03:09:17.431Z,8.6
2018-10-09T03:14:19.854Z,8.6
2018-10-09T03:19:22.286Z,8.6
2018-10-09T03:24:24.740Z,8.5
2018-10-09T03:29:27.172Z,8.5
2018-10-09T03:34:29.675Z,8.5
2018-10-09T03:39:32.070Z,8.4
2018-10-09T03:44:34.521Z,8.4
2018-10-09T03:49:36.960Z,8.4
2018-10-09T03:54:39.402Z,8.3
2018-10-09T03:59:41.844Z,8.3
2018-10-09T04:04:44.344Z,8.3
2018-10-09T04:09:51.812Z,8.2
2018-10-09T04:14:49.181Z,8.2
2018-10-09T04:19:51.760Z,8.1
2018-10-09T04:24:54.072Z,8.1
2018-10-09T04:29:56.533Z,8
2018-10-09T04:34:58.957Z,8
2018-10-09T04:40:01.457Z,8
2018-10-09T04:45:03.801Z,8
2018-10-09T04:50:06.257Z,8
2018-10-09T04:55:08.688Z,7.9
2018-10-09T05:00:11.130Z,7.9
2018-10-09T05:05:13.584Z,7.9
2018-10-09T05:10:16.021Z,7.9
2018-10-09T05:15:18.454Z,7.9
2018-10-09T05:20:20.882Z,7.9
2018-10-09T05:25:23.332Z,7.8
2018-10-09T05:30:25.762Z,7.8
2018-10-09T05:35:28.215Z,7.8
2018-10-09T05:40:30.665Z,7.8
2018-10-09T05:45:33.097Z,7.8
2018-10-09T05:50:35.532Z,7.9
2018-10-09T05:55:37.983Z,7.9
2018-10-09T06:00:40.393Z,7.9
2018-10-09T06:05:42.847Z,8
2018-10-09T06:10:45.285Z,8
2018-10-09T06:15:47.758Z,8.1
2018-10-09T06:20:50.156Z,8.3
2018-10-09T06:25:52.601Z,8.4
2018-10-09T06:30:55.037Z,8.5
2018-10-09T06:35:57.507Z,8.6
2018-10-09T06:40:59.941Z,8.8
2018-10-09T06:46:02.378Z,8.9
2018-10-09T06:51:04.807Z,9
2018-10-09T06:56:07.263Z,9.2
2018-10-09T07:01:09.713Z,9.3
2018-10-09T07:06:12.205Z,9.4
2018-10-09T07:11:14.721Z,9.6
2018-10-09T07:16:17.091Z,9.7
2018-10-09T07:21:19.451Z,9.8
2018-10-09T07:26:21.912Z,9.8
2018-10-09T07:31:24.333Z,9.9
2018-10-09T07:36:26.762Z,10.1
2018-10-09T07:41:29.235Z,10.4
2018-10-09T07:46:31.652Z,10.7
2018-10-09T07:51:34.103Z,10.9
2018-10-09T07:56:36.595Z,11.1
2018-10-09T08:01:38.974Z,11.3
2018-10-09T08:06:41.417Z,11.4
2018-10-09T08:11:43.849Z,11.4
2018-10-09T08:16:46.316Z,11.5
2018-10-09T08:21:48.730Z,11.5
2018-10-09T08:26:51.210Z,11.6
2018-10-09T08:31:53.708Z,11.7
2018-10-09T08:36:56.079Z,11.9
2018-10-09T08:41:58.493Z,12.2
2018-10-09T08:47:00.954Z,12.4
2018-10-09T08:52:03.459Z,12.7
2018-10-09T08:57:05.842Z,12.8
2018-10-09T09:02:08.257Z,13
2018-10-09T09:07:10.713Z,13.1
2018-10-09T09:12:13.177Z,13.2
2018-10-09T09:17:15.601Z,13.4
2018-10-09T09:22:18.023Z,13.6
2018-10-09T09:27:20.536Z,13.8
2018-10-09T09:32:22.988Z,14.1
2018-10-09T09:37:25.352Z,14.3
2018-10-09T09:42:27.809Z,14.4
2018-10-09T09:47:30.249Z,14.5
2018-10-09T09:52:32.663Z,14.8
2018-10-09T09:57:35.141Z,15
2018-10-09T10:02:37.535Z,15.3
2018-10-09T10:07:40.000Z,15.5
2018-10-09T10:12:42.434Z,15.8
2018-10-09T10:17:44.885Z,16
2018-10-09T10:22:47.307Z,16.2
2018-10-09T10:27:49.763Z,16.3
2018-10-09T10:32:52.202Z,16.5
2018-10-09T10:37:54.643Z,16.5
2018-10-09T10:42:57.089Z,16.6
2018-10-09T10:47:59.580Z,16.7
2018-10-09T10:53:01.961Z,16.6
2018-10-09T10:58:04.418Z,16.6
2018-10-09T11:03:06.841Z,16.8
2018-10-09T11:08:09.320Z,16.8
2018-10-09T11:13:11.711Z,17.2
2018-10-09T11:18:14.171Z,17.8
2018-10-09T11:23:16.613Z,18.5
2018-10-09T11:28:19.046Z,19.5
2018-10-09T11:33:21.485Z,20.8
2018-10-09T11:38:23.913Z,21.8
2018-10-09T11:43:26.380Z,22.6
2018-10-09T11:48:28.803Z,23.4
2018-10-09T11:53:31.248Z,24.1
2018-10-09T11:58:33.736Z,24.2
2018-10-09T12:03:36.129Z,23.8
2018-10-09T12:08:38.571Z,24.6
2018-10-09T12:13:41.020Z,25.9
2018-10-09T12:18:43.478Z,26.4
2018-10-09T12:23:45.895Z,26.5
2018-10-09T12:28:48.335Z,27.1
2018-10-09T12:33:50.778Z,27.8
2018-10-09T12:38:53.240Z,28.3
2018-10-09T12:43:55.801Z,29
2018-10-09T12:48:58.193Z,29.5
2018-10-09T12:54:00.570Z,30
2018-10-09T12:59:03.063Z,30.6
2018-10-09T13:04:05.445Z,30.9
2018-10-09T13:09:07.898Z,31.3
2018-10-09T13:14:10.322Z,31.5
2018-10-09T13:19:12.887Z,31.6
2018-10-09T13:24:15.203Z,31.6
2018-10-09T13:29:17.711Z,31.6
2018-10-09T13:34:20.187Z,31.6
2018-10-09T13:39:22.559Z,31.1
2018-10-09T13:44:25.003Z,30.9
2018-10-09T13:49:27.430Z,31.1
2018-10-09T13:54:29.863Z,30.9
2018-10-09T13:59:32.315Z,30.2
2018-10-09T14:04:34.750Z,30.6
2018-10-09T14:09:37.236Z,31.3
2018-10-09T14:14:39.664Z,31.8
2018-10-09T14:19:42.092Z,32
2018-10-09T14:24:44.542Z,32.1
2018-10-09T14:29:46.998Z,31.9
2018-10-09T14:34:49.431Z,31.3
2018-10-09T14:39:51.961Z,29.7
2018-10-09T14:44:54.294Z,27.9
2018-10-09T14:49:56.765Z,26.5
2018-10-09T14:54:59.218Z,25.3
2018-10-09T15:00:06.683Z,24.4
2018-10-09T15:05:04.064Z,23.8
2018-10-09T15:10:06.503Z,23.3
2018-10-09T15:15:09.005Z,22.9
2018-10-09T15:20:11.396Z,22.5
2018-10-09T15:25:13.832Z,22
2018-10-09T15:30:16.282Z,21.5
2018-10-09T15:35:18.754Z,21.1
2018-10-09T15:40:21.180Z,20.7
2018-10-09T15:45:23.644Z,20.3
2018-10-09T15:50:26.047Z,20
2018-10-09T15:55:28.471Z,19.6
2018-10-09T16:00:30.929Z,19.3
2018-10-09T16:05:33.378Z,18.9
2018-10-09T16:10:35.969Z,18.6
2018-10-09T16:15:38.246Z,18.4
2018-10-09T16:20:40.817Z,18.1
2018-10-09T16:25:43.124Z,17.8
2018-10-09T16:30:45.591Z,17.6
2018-10-09T16:35:47.995Z,17.3
2018-10-09T16:40:50.434Z,17.1
2018-10-09T16:45:52.869Z,16.8
2018-10-09T16:50:55.339Z,16.6
2018-10-09T17:06:02.664Z,16.1
2018-10-09T17:11:05.082Z,15.9
2018-10-09T17:16:07.548Z,15.7
2018-10-09T17:21:09.977Z,15.5
2018-10-09T17:26:12.397Z,15.4
2018-10-09T17:36:17.300Z,15.1
2018-10-09T17:41:19.752Z,15.1
2018-10-09T17:51:24.611Z,14.9
2018-10-09T17:56:27.041Z,14.9
2018-10-09T18:01:29.536Z,14.8
2018-10-09T18:06:31.985Z,14.8
2018-10-09T18:11:34.361Z,14.7
2018-10-09T18:16:36.815Z,14.6
2018-10-09T18:21:39.241Z,14.5
2018-10-09T18:26:41.695Z,14.4
2018-10-09T18:36:46.563Z,14.3
2018-10-09T18:41:49.151Z,14.2
2018-10-09T18:46:51.514Z,14.2
2018-10-09T18:51:53.891Z,14.1
2018-10-09T18:56:56.338Z,14
2018-10-09T19:01:58.777Z,13.9
2018-10-09T19:07:01.205Z,13.8
2018-10-09T19:12:03.654Z,13.8
2018-10-09T19:17:06.082Z,13.7
2018-10-09T19:22:08.540Z,13.7
2018-10-09T19:32:13.452Z,13.4
2018-10-09T19:37:15.851Z,13.3
2018-10-09T19:42:18.331Z,13.1
2018-10-09T19:47:20.733Z,13
2018-10-09T19:52:23.162Z,12.9
2018-10-09T19:57:25.613Z,12.8
2018-10-09T20:02:28.049Z,12.7
2018-10-09T20:07:30.497Z,12.5
2018-10-09T20:12:32.926Z,12.4
2018-10-09T20:17:35.381Z,12.3
2018-10-09T20:22:37.814Z,12.2
2018-10-09T20:27:40.253Z,12.1
2018-10-09T20:32:42.706Z,12
2018-10-09T20:37:45.144Z,12
2018-10-09T20:42:47.860Z,11.9
2018-10-09T20:47:50.020Z,12
2018-10-09T20:52:52.457Z,12
2018-10-09T20:57:54.896Z,11.9
2018-10-09T21:02:57.344Z,12
2018-10-09T21:07:59.780Z,12.1
2018-10-09T21:13:02.250Z,12.1
2018-10-09T21:18:04.758Z,12.2
2018-10-09T21:23:07.116Z,12.2
2018-10-09T21:28:09.829Z,12.2
2018-10-09T21:33:12.032Z,12.2
2018-10-09T21:38:14.469Z,12.1
2018-10-09T21:43:16.876Z,11.9
2018-10-09T21:48:19.302Z,11.8
2018-10-09T21:53:21.740Z,11.7
2018-10-09T21:58:24.212Z,11.7
2018-10-09T22:03:26.626Z,11.8
2018-10-09T22:08:29.336Z,11.7
2018-10-09T22:13:31.503Z,11.7
2018-10-09T22:18:33.949Z,11.6
2018-10-09T22:23:36.383Z,11.5
2018-10-09T22:28:38.819Z,11.5
2018-10-09T22:33:41.264Z,11.4
2018-10-09T22:38:43.703Z,11.2
2018-10-09T22:43:46.169Z,11.1
2018-10-09T22:48:48.587Z,11.1
2018-10-09T22:53:51.018Z,11.1
2018-10-09T22:58:53.464Z,11.1
2018-10-09T23:03:55.898Z,11.2
2018-10-09T23:08:58.341Z,11.2
2018-10-09T23:14:00.785Z,11
2018-10-09T23:19:03.334Z,10.9
2018-10-09T23:24:05.673Z,10.8
2018-10-09T23:29:08.098Z,10.7
2018-10-09T23:34:10.550Z,10.7
2018-10-09T23:39:12.981Z,10.6
2018-10-09T23:44:15.433Z,10.5
2018-10-09T23:49:17.870Z,10.5
2018-10-09T23:54:20.305Z,10.5
2018-10-09T23:59:22.738Z,10.4
